Time;durP1;ratioP1;P1;durP2;ratioP2;P2;SDS_P1;SDS_P2;PMS_P1;PMS_P2;Temp;Humidity;BMP_temperature;BMP_pressure;BME280_temperature;BME280_humidity;BME280_pressure;Samples;Min_cycle;Max_cycle;Signal;HPM_P1;HPM_P2
2023/03/17 00:00:05;;;;;;;7.50;3.47;;;;;;;7.19;73.58;100805.06;5076619;28;20028;-76
2023/03/17 00:02:31;;;;;;;7.93;3.47;;;;;;;7.19;73.12;100814.53;5073604;28;20056;-76
2023/03/17 00:04:56;;;;;;;9.90;3.42;;;;;;;7.14;73.31;100819.78;5073895;28;20078;-75
2023/03/17 00:07:22;;;;;;;10.38;4.10;;;;;;;7.12;73.40;100826.72;5077403;28;20031;-76
2023/03/17 00:09:47;;;;;;;8.18;3.67;;;;;;;7.04;73.51;100812.97;5073716;28;20025;-76
2023/03/17 00:12:14;;;;;;;7.28;3.42;;;;;;;7.05;74.66;100819.88;5073829;28;20104;-75
2023/03/17 00:14:40;;;;;;;5.70;3.63;;;;;;;6.98;75.38;100810.44;5073637;28;20039;-76
2023/03/17 00:17:08;;;;;;;6.57;3.65;;;;;;;6.94;74.74;100811.34;5076003;28;20082;-75
2023/03/17 00:19:34;;;;;;;8.85;3.90;;;;;;;6.90;74.82;100813.09;5083147;28;20426;-76
2023/03/17 00:22:01;;;;;;;5.97;3.60;;;;;;;6.80;77.08;100796.78;5077041;28;20074;-76
2023/03/17 00:24:27;;;;;;;7.82;3.83;;;;;;;6.76;76.53;100782.09;5077236;28;20054;-76
2023/03/17 00:26:53;;;;;;;5.72;3.55;;;;;;;6.74;77.64;100781.28;5078911;28;20578;-75
2023/03/17 00:29:18;;;;;;;7.57;3.35;;;;;;;6.66;77.22;100770.09;5082589;28;20035;-76
2023/03/17 00:31:44;;;;;;;7.07;3.78;;;;;;;6.53;76.59;100751.22;5083198;28;20024;-76
2023/03/17 00:34:15;;;;;;;7.25;3.92;;;;;;;6.65;76.51;100771.00;5073555;28;20028;-76
2023/03/17 00:36:42;;;;;;;6.72;3.72;;;;;;;6.60;76.86;100767.56;5072686;28;20032;-76
2023/03/17 00:39:13;;;;;;;7.68;4.15;;;;;;;6.61;77.59;100769.31;5072940;28;20082;-76
2023/03/17 00:41:38;;;;;;;10.00;4.05;;;;;;;6.58;78.05;100779.69;5072857;28;20450;-76
2023/03/17 00:44:04;;;;;;;7.70;3.55;;;;;;;6.61;77.12;100778.81;5073084;28;20142;-76
2023/03/17 00:46:36;;;;;;;5.78;3.70;;;;;;;6.61;78.75;100769.31;5073130;28;20044;-76
2023/03/17 00:49:22;;;;;;;5.40;3.50;;;;;;;6.60;78.61;100774.47;5073502;28;20371;-75
2023/03/17 00:51:49;;;;;;;6.93;3.65;;;;;;;6.56;79.19;100771.91;5076197;28;20040;-76
2023/03/17 00:54:16;;;;;;;7.88;3.63;;;;;;;6.57;78.14;100767.59;5073666;28;20036;-76
2023/03/17 00:56:43;;;;;;;7.80;3.40;;;;;;;6.58;77.86;100769.31;5075990;28;20097;-76
2023/03/17 00:59:19;;;;;;;6.32;3.35;;;;;;;6.57;78.39;100765.00;5084067;28;20028;-76
2023/03/17 01:01:45;;;;;;;6.95;3.47;;;;;;;6.54;79.70;100765.91;5085466;28;20055;-76
2023/03/17 01:04:10;;;;;;;6.35;3.80;;;;;;;6.55;78.58;100764.16;5072940;28;20061;-76
2023/03/17 01:06:36;;;;;;;6.80;3.63;;;;;;;6.54;78.31;100762.47;5072423;28;20078;-76
2023/03/17 01:09:02;;;;;;;6.63;3.45;;;;;;;6.54;79.21;100767.63;5072786;28;20397;-76
2023/03/17 01:11:28;;;;;;;5.25;3.35;;;;;;;6.52;79.82;100766.78;5072725;28;20719;-76
2023/03/17 01:13:53;;;;;;;6.20;3.38;;;;;;;6.40;80.17;100759.09;5071663;28;20039;-76
2023/03/17 01:16:18;;;;;;;5.63;3.50;;;;;;;6.40;78.97;100765.13;5072750;28;20028;-76
2023/03/17 01:18:44;;;;;;;7.53;4.32;;;;;;;6.35;79.72;100760.88;5072766;28;20424;-76
2023/03/17 01:21:10;;;;;;;5.78;3.05;;;;;;;6.24;79.20;100751.44;5072354;28;20586;-76
2023/03/17 01:23:36;;;;;;;5.72;3.40;;;;;;;6.18;79.44;100746.34;5072184;28;20047;-76
2023/03/17 01:26:01;;;;;;;6.28;3.47;;;;;;;6.16;80.71;100745.47;5075772;28;20020;-76
2023/03/17 01:28:27;;;;;;;5.90;3.60;;;;;;;6.04;79.76;100730.88;5071812;28;20099;-75
2023/03/17 01:30:52;;;;;;;4.95;3.22;;;;;;;6.05;79.55;100736.94;5074527;28;20117;-76
2023/03/17 01:33:17;;;;;;;6.75;3.60;;;;;;;6.10;79.91;100748.09;5070956;28;20032;-75
2023/03/17 01:35:44;;;;;;;6.40;3.22;;;;;;;6.13;80.38;100753.25;5072152;28;20035;-76
2023/03/17 01:38:10;;;;;;;7.53;3.35;;;;;;;6.11;80.58;100749.81;5072783;28;20044;-76
2023/03/17 01:40:41;;;;;;;7.47;3.65;;;;;;;6.00;80.44;100723.16;5071206;28;20029;-75
2023/03/17 01:43:09;;;;;;;7.60;3.45;;;;;;;6.09;80.78;100746.38;5071198;28;20033;-75
2023/03/17 01:46:12;;;;;;;7.95;3.78;;;;;;;6.03;80.93;100743.84;5072080;28;20395;-76
2023/03/17 01:49:08;;;;;;;7.63;3.30;;;;;;;5.96;81.58;100749.91;5068809;28;20479;-75
2023/03/17 01:51:57;;;;;;;7.05;3.58;;;;;;;5.91;81.64;100738.69;5075316;28;20016;-75
2023/03/17 01:54:29;;;;;;;7.90;3.58;;;;;;;5.85;82.10;100732.69;5068585;28;20060;-75
2023/03/17 01:57:00;;;;;;;8.00;3.67;;;;;;;5.80;83.22;100726.69;5075937;28;20135;-76
2023/03/17 01:59:32;;;;;;;5.88;3.35;;;;;;;5.80;82.75;100731.84;5071286;28;20024;-76
2023/03/17 02:02:03;;;;;;;8.00;3.72;;;;;;;5.80;82.58;100716.34;5075426;28;20016;-75
2023/03/17 02:04:30;;;;;;;7.38;3.58;;;;;;;5.80;82.39;100721.50;5082469;28;20361;-75
2023/03/17 02:06:56;;;;;;;6.00;3.63;;;;;;;5.79;83.48;100714.63;5072394;28;20352;-76
2023/03/17 02:09:22;;;;;;;7.80;4.00;;;;;;;5.75;83.82;100707.72;5074981;28;20464;-76
2023/03/17 02:11:47;;;;;;;6.63;3.60;;;;;;;5.76;83.09;100709.47;5073067;28;20067;-76
2023/03/17 02:14:13;;;;;;;7.82;3.63;;;;;;;5.72;83.80;100701.72;5075458;28;20484;-76
2023/03/17 02:16:38;;;;;;;7.47;3.47;;;;;;;5.79;83.39;100709.44;5071311;28;20454;-76
2023/03/17 02:19:04;;;;;;;7.72;3.60;;;;;;;5.82;83.35;100709.44;5071901;28;20047;-76
2023/03/17 02:21:32;;;;;;;8.98;3.72;;;;;;;5.84;83.44;100702.50;5071136;28;20086;-76
2023/03/17 02:24:00;;;;;;;9.00;4.28;;;;;;;5.89;82.63;100699.06;5071675;28;20032;-75
2023/03/17 02:26:30;;;;;;;11.60;3.90;;;;;;;5.90;83.06;100706.78;5070761;28;20615;-75
2023/03/17 02:28:55;;;;;;;6.68;3.60;;;;;;;5.92;83.34;100693.81;5072898;28;20025;-75
2023/03/17 02:31:24;;;;;;;6.72;3.38;;;;;;;6.01;83.05;100698.97;5071215;28;20395;-75
2023/03/17 02:33:51;;;;;;;6.65;4.07;;;;;;;6.01;82.88;100699.84;5058250;28;20028;-75
2023/03/17 02:36:16;;;;;;;9.95;4.00;;;;;;;5.91;82.48;100677.44;5071716;28;20039;-75
2023/03/17 02:38:42;;;;;;;7.38;4.03;;;;;;;6.03;81.91;100686.91;5070621;28;20099;-75
2023/03/17 02:41:08;;;;;;;9.73;4.30;;;;;;;6.07;82.96;100686.00;5071248;28;20052;-75
2023/03/17 02:43:34;;;;;;;8.18;4.10;;;;;;;6.00;81.57;100673.97;5070769;28;20555;-75
2023/03/17 02:46:00;;;;;;;6.88;3.60;;;;;;;6.09;81.06;100685.13;5070948;28;20048;-75
2023/03/17 02:48:26;;;;;;;6.97;3.70;;;;;;;6.05;81.01;100669.66;5071039;28;20130;-75
2023/03/17 02:50:51;;;;;;;7.68;3.80;;;;;;;6.02;81.60;100675.69;5072496;28;20029;-75
2023/03/17 02:53:16;;;;;;;8.52;3.75;;;;;;;6.02;82.06;100669.66;5074969;28;20060;-75
2023/03/17 02:55:42;;;;;;;11.02;4.03;;;;;;;6.01;81.93;100668.78;5071584;28;20051;-76
2023/03/17 02:58:08;;;;;;;6.88;3.72;;;;;;;5.97;82.84;100671.41;5071188;28;20025;-75
2023/03/17 03:00:33;;;;;;;8.65;3.63;;;;;;;5.99;82.07;100685.22;5071344;28;20031;-75
2023/03/17 03:02:59;;;;;;;7.93;4.03;;;;;;;6.01;81.99;100678.28;5071523;28;20028;-75
2023/03/17 03:05:25;;;;;;;6.20;3.40;;;;;;;6.03;81.27;100676.53;5073427;28;20021;-75
2023/03/17 03:07:51;;;;;;;6.68;3.88;;;;;;;6.07;80.71;100689.44;5074230;28;20177;-75
2023/03/17 03:10:17;;;;;;;6.90;3.60;;;;;;;6.08;80.71;100686.00;5075258;28;20028;-75
2023/03/17 03:12:43;;;;;;;7.55;3.45;;;;;;;6.01;81.61;100673.09;5074125;28;20478;-75
2023/03/17 03:15:09;;;;;;;7.47;3.40;;;;;;;6.09;80.75;100668.75;5074919;28;20060;-75
2023/03/17 03:17:35;;;;;;;7.07;3.35;;;;;;;6.09;80.43;100676.50;5074877;28;20040;-75
2023/03/17 03:20:00;;;;;;;8.88;3.47;;;;;;;6.09;80.43;100682.53;5074096;28;20012;-75
2023/03/17 03:22:25;;;;;;;6.22;3.10;;;;;;;6.07;80.36;100683.41;5075529;28;20365;-75
2023/03/17 03:24:51;;;;;;;6.90;3.22;;;;;;;6.08;80.78;100696.34;5074988;28;20034;-75
2023/03/17 03:27:16;;;;;;;5.60;3.00;;;;;;;6.05;80.20;100688.63;5074352;28;20447;-75
2023/03/17 03:29:41;;;;;;;8.52;3.67;;;;;;;6.06;81.45;100686.88;5074697;28;20055;-75
2023/03/17 03:32:07;;;;;;;7.22;2.95;;;;;;;6.04;80.18;100679.09;5075059;28;20016;-75
2023/03/17 03:34:33;;;;;;;8.15;3.50;;;;;;;6.04;80.41;100680.84;5073487;28;20032;-75
2023/03/17 03:36:58;;;;;;;9.63;3.17;;;;;;;6.01;80.56;100686.03;5075465;28;20474;-75
2023/03/17 03:39:23;;;;;;;8.32;3.20;;;;;;;5.94;80.33;100686.97;5074701;28;20118;-75
2023/03/17 03:41:49;;;;;;;5.88;3.10;;;;;;;5.98;80.57;100699.84;5073681;28;20078;-75
2023/03/17 03:44:14;;;;;;;6.75;3.28;;;;;;;5.97;80.08;100699.88;5074191;28;20518;-75
2023/03/17 03:46:39;;;;;;;6.80;3.28;;;;;;;5.96;80.34;100708.53;5074293;28;20074;-75
2023/03/17 03:49:05;;;;;;;9.32;3.15;;;;;;;5.91;80.94;100707.66;5073745;28;20108;-75
2023/03/17 03:51:30;;;;;;;5.68;3.33;;;;;;;5.93;80.87;100705.94;5074075;28;20086;-75
2023/03/17 03:53:55;;;;;;;6.25;3.00;;;;;;;5.83;81.51;100690.44;5073973;28;20383;-75
2023/03/17 03:56:21;;;;;;;5.90;2.97;;;;;;;5.86;81.69;100708.53;5074296;28;20361;-75
2023/03/17 03:58:46;;;;;;;6.55;3.40;;;;;;;5.83;81.54;100705.13;5074201;28;20033;-75
2023/03/17 04:01:12;;;;;;;10.02;3.55;;;;;;;5.81;81.00;100714.59;5074474;28;20032;-75
2023/03/17 04:03:38;;;;;;;7.35;3.00;;;;;;;5.72;81.45;100704.31;5075646;28;20585;-75
2023/03/17 04:06:04;;;;;;;7.25;3.20;;;;;;;5.75;81.36;100706.88;5074651;28;20017;-75
2023/03/17 04:08:30;;;;;;;5.65;3.05;;;;;;;5.74;81.79;100705.16;5073622;28;20035;-75
2023/03/17 04:10:56;;;;;;;8.65;3.50;;;;;;;5.71;81.95;100706.03;5077689;28;20448;-75
2023/03/17 04:13:21;;;;;;;9.60;4.00;;;;;;;5.70;81.80;100709.50;5063976;28;20031;-75
2023/03/17 04:15:47;;;;;;;5.82;3.20;;;;;;;5.71;82.02;100708.63;5077850;28;20411;-75
2023/03/17 04:18:12;;;;;;;11.50;3.83;;;;;;;5.66;82.01;100699.16;5073239;28;20163;-75
2023/03/17 04:20:37;;;;;;;7.82;3.70;;;;;;;5.72;82.76;100707.78;5078130;28;20100;-75
2023/03/17 04:23:03;;;;;;;8.73;3.50;;;;;;;5.71;81.61;100713.78;5084747;28;20025;-76
2023/03/17 04:25:28;;;;;;;7.63;4.00;;;;;;;5.70;82.41;100713.81;5082792;28;20384;-75
2023/03/17 04:27:54;;;;;;;8.30;3.38;;;;;;;5.71;82.81;100720.69;5079318;28;20040;-75
2023/03/17 04:30:19;;;;;;;9.18;4.00;;;;;;;5.66;82.66;100705.22;5074389;28;20112;-75
2023/03/17 04:32:45;;;;;;;9.07;3.88;;;;;;;5.64;82.15;100699.19;5071766;28;20479;-75
2023/03/17 04:35:16;;;;;;;10.73;3.50;;;;;;;5.71;82.99;100705.19;5076302;28;20036;-76
2023/03/17 04:37:42;;;;;;;8.15;3.42;;;;;;;5.70;82.61;100708.66;5084714;28;20033;-75
2023/03/17 04:40:09;;;;;;;7.93;3.45;;;;;;;5.64;82.45;100707.78;5078233;28;20099;-75
2023/03/17 04:42:36;;;;;;;9.75;4.45;;;;;;;5.69;82.70;100715.56;5074108;28;20032;-76
2023/03/17 04:45:02;;;;;;;10.25;3.67;;;;;;;5.67;83.04;100719.00;5079443;28;20043;-75
2023/03/17 04:47:28;;;;;;;7.22;3.42;;;;;;;5.68;82.96;100710.38;5080061;28;20037;-75
2023/03/17 04:49:53;;;;;;;13.65;3.90;;;;;;;5.64;82.27;100701.78;5072837;28;20032;-75
2023/03/17 04:52:18;;;;;;;7.68;3.22;;;;;;;5.71;82.32;100710.34;5081093;28;20065;-75
2023/03/17 04:54:44;;;;;;;15.13;4.13;;;;;;;5.72;82.60;100707.78;5073745;28;20551;-75
2023/03/17 04:57:09;;;;;;;10.80;3.65;;;;;;;5.71;83.18;100700.00;5076854;28;20031;-76
2023/03/17 04:59:34;;;;;;;10.80;3.45;;;;;;;5.70;83.09;100709.50;5078344;28;20063;-75
2023/03/17 05:02:01;;;;;;;10.98;4.15;;;;;;;5.74;81.51;100706.03;5078259;28;20102;-75
2023/03/17 05:04:26;;;;;;;13.32;4.05;;;;;;;5.75;82.03;100697.38;5078726;28;20025;-76
2023/03/17 05:06:51;;;;;;;12.05;4.15;;;;;;;5.76;82.18;100700.84;5083682;28;20055;-75
2023/03/17 05:09:18;;;;;;;10.82;3.78;;;;;;;5.76;82.17;100693.94;5081900;28;20075;-76
2023/03/17 05:11:43;;;;;;;12.82;4.18;;;;;;;5.77;83.29;100685.31;5080579;28;20052;-75
2023/03/17 05:14:08;;;;;;;15.90;4.47;;;;;;;5.79;82.51;100686.16;5079040;28;20041;-75
2023/03/17 05:16:34;;;;;;;12.02;3.85;;;;;;;5.77;82.91;100684.44;5076774;28;20037;-75
2023/03/17 05:18:59;;;;;;;16.40;4.35;;;;;;;5.81;82.75;100688.72;5072344;28;20051;-76
2023/03/17 05:21:25;;;;;;;10.27;4.20;;;;;;;5.82;82.75;100691.31;5072540;28;20468;-75
2023/03/17 05:23:50;;;;;;;15.18;3.95;;;;;;;5.81;82.14;100686.16;5072716;28;20040;-75
2023/03/17 05:26:15;;;;;;;13.32;4.07;;;;;;;5.82;82.03;100693.03;5072335;28;20067;-75
2023/03/17 05:28:41;;;;;;;9.57;3.65;;;;;;;5.87;82.54;100709.41;5072260;28;20519;-75
2023/03/17 05:31:07;;;;;;;11.65;3.38;;;;;;;5.86;83.69;100713.72;5072391;28;20480;-75
2023/03/17 05:33:32;;;;;;;12.18;3.67;;;;;;;5.85;82.68;100709.41;5070303;28;20085;-75
2023/03/17 05:35:58;;;;;;;10.75;4.10;;;;;;;5.83;83.08;100708.56;5072850;28;20064;-75
2023/03/17 05:38:23;;;;;;;9.77;3.88;;;;;;;5.85;82.62;100711.13;5072486;28;22165;-75
2023/03/17 05:40:50;;;;;;;8.85;3.78;;;;;;;5.83;82.58;100702.53;5071597;28;20021;-76
2023/03/17 05:43:15;;;;;;;12.48;4.00;;;;;;;5.87;82.83;100712.84;5072882;28;20017;-75
2023/03/17 05:45:41;;;;;;;9.30;3.80;;;;;;;5.89;82.56;100704.22;5075969;28;20024;-76
2023/03/17 05:48:07;;;;;;;11.80;3.35;;;;;;;5.86;82.36;100700.78;5055103;28;20078;-75
2023/03/17 05:50:32;;;;;;;11.60;3.58;;;;;;;5.84;82.76;100693.88;5055519;28;20025;-76
2023/03/17 05:52:58;;;;;;;15.18;3.90;;;;;;;5.82;82.51;100703.38;5053327;28;20029;-75
2023/03/17 05:55:23;;;;;;;10.90;3.85;;;;;;;5.78;82.88;100707.72;5059166;28;20025;-76
2023/03/17 05:57:48;;;;;;;10.43;3.70;;;;;;;5.76;83.45;100700.84;5072856;28;20028;-76
2023/03/17 06:00:17;;;;;;;11.07;4.22;;;;;;;5.74;84.08;100702.59;5065833;28;20422;-75
2023/03/17 06:02:43;;;;;;;13.27;3.70;;;;;;;5.68;84.46;100690.53;5041294;28;20029;-76
2023/03/17 06:05:08;;;;;;;12.38;4.13;;;;;;;5.66;84.08;100694.00;5051666;28;20028;-76
2023/03/17 06:07:35;;;;;;;16.25;4.10;;;;;;;5.66;84.76;100697.47;5051972;28;20036;-76
2023/03/17 06:10:01;;;;;;;14.40;4.40;;;;;;;5.51;84.73;100672.53;5052347;28;20158;-76
2023/03/17 06:12:26;;;;;;;10.68;4.40;;;;;;;5.65;85.03;100695.72;5051044;28;20103;-75
2023/03/17 06:14:51;;;;;;;18.30;4.50;;;;;;;5.60;85.24;100697.50;5052855;28;20041;-75
2023/03/17 06:17:17;;;;;;;8.55;3.42;;;;;;;5.67;85.16;100695.72;5053965;28;20025;-75
2023/03/17 06:19:42;;;;;;;11.15;4.03;;;;;;;5.70;85.55;100706.06;5054726;28;20110;-75
2023/03/17 06:22:08;;;;;;;12.02;3.83;;;;;;;5.72;84.98;100707.78;5051359;28;20025;-76
2023/03/17 06:24:33;;;;;;;12.18;4.22;;;;;;;5.77;85.02;100711.19;5051540;28;20400;-76
2023/03/17 06:26:58;;;;;;;11.00;4.20;;;;;;;5.77;85.33;100708.59;5051775;28;20091;-76
2023/03/17 06:29:24;;;;;;;10.25;3.72;;;;;;;5.86;85.26;100708.53;5049147;28;20016;-76
2023/03/17 06:31:50;;;;;;;9.75;3.80;;;;;;;5.90;84.24;100711.09;5051293;28;20074;-76
2023/03/17 06:34:20;;;;;;;10.45;3.90;;;;;;;5.99;84.90;100716.25;5051731;28;20120;-76
2023/03/17 06:36:46;;;;;;;8.90;3.53;;;;;;;6.00;84.19;100710.22;5050407;28;20053;-76
2023/03/17 06:39:12;;;;;;;9.77;3.63;;;;;;;6.08;83.97;100722.25;5051532;28;20060;-75
2023/03/17 06:41:38;;;;;;;10.93;3.53;;;;;;;6.13;83.78;100705.81;5057364;28;20075;-75
2023/03/17 06:44:04;;;;;;;13.02;3.78;;;;;;;6.20;83.66;100700.56;5056170;28;20049;-75
2023/03/17 06:46:31;;;;;;;16.63;3.83;;;;;;;6.26;83.47;100699.66;5065273;28;20045;-75
2023/03/17 06:48:57;;;;;;;12.70;3.90;;;;;;;6.32;83.56;100704.78;5078199;28;20551;-75
2023/03/17 06:51:22;;;;;;;12.95;4.18;;;;;;;6.40;82.65;100702.13;5081029;28;20024;-75
2023/03/17 06:53:47;;;;;;;11.30;3.55;;;;;;;6.50;82.64;100702.03;5077630;28;20071;-75
2023/03/17 06:56:12;;;;;;;8.75;3.58;;;;;;;6.55;82.72;100695.09;5078258;28;20028;-75
2023/03/17 06:58:41;;;;;;;13.50;4.20;;;;;;;6.68;81.67;100706.19;5077104;28;20468;-75
2023/03/17 07:01:07;;;;;;;9.88;3.75;;;;;;;6.76;81.76;100696.59;5082251;28;20021;-75
2023/03/17 07:03:33;;;;;;;11.00;3.80;;;;;;;6.87;81.30;100709.47;5078027;28;20108;-75
2023/03/17 07:05:59;;;;;;;9.10;3.47;;;;;;;6.97;81.43;100710.22;5077210;28;20112;-75
2023/03/17 07:08:24;;;;;;;10.23;3.88;;;;;;;7.04;79.80;100707.53;5078334;28;20024;-75
2023/03/17 07:10:52;;;;;;;13.13;3.88;;;;;;;7.12;80.01;100702.25;5077168;28;20104;-75
2023/03/17 07:13:18;;;;;;;9.63;3.53;;;;;;;7.21;81.71;100709.94;5077518;28;20047;-75
2023/03/17 07:15:43;;;;;;;10.82;3.35;;;;;;;7.30;80.06;100709.00;5077372;28;20375;-75
2023/03/17 07:18:09;;;;;;;9.05;3.67;;;;;;;7.37;79.92;100705.44;5077811;28;20056;-75
2023/03/17 07:20:35;;;;;;;9.15;4.10;;;;;;;7.45;79.83;100705.31;5077636;28;20028;-75
2023/03/17 07:23:01;;;;;;;9.70;3.55;;;;;;;7.57;78.05;100717.28;5078747;28;20027;-75
2023/03/17 07:25:26;;;;;;;9.48;3.75;;;;;;;7.66;77.12;100707.66;5078179;28;20476;-75
2023/03/17 07:27:51;;;;;;;10.05;4.10;;;;;;;7.73;76.85;100698.03;5077903;28;20510;-75
2023/03/17 07:30:18;;;;;;;10.23;3.65;;;;;;;7.79;77.16;100695.38;5078698;28;20133;-75
2023/03/17 07:32:44;;;;;;;7.93;3.70;;;;;;;7.94;75.49;100691.66;5077807;28;20021;-75
2023/03/17 07:35:10;;;;;;;12.55;4.15;;;;;;;8.07;75.54;100693.19;5078035;28;20035;-75
2023/03/17 07:37:36;;;;;;;5.00;3.10;;;;;;;8.16;75.30;100687.00;5087101;28;20077;-75
2023/03/17 07:40:01;;;;;;;9.75;3.55;;;;;;;8.21;75.32;100690.41;5081778;28;20463;-75
2023/03/17 07:42:27;;;;;;;8.25;3.60;;;;;;;8.30;73.07;100689.38;5076922;28;20055;-75
2023/03/17 07:44:53;;;;;;;9.13;3.60;;;;;;;8.34;73.92;100691.06;5078974;28;20476;-74
2023/03/17 07:47:18;;;;;;;9.68;3.58;;;;;;;8.42;72.48;100684.03;5086019;28;20047;-75
2023/03/17 07:49:43;;;;;;;8.50;3.47;;;;;;;8.44;73.30;100687.47;5090037;28;20032;-75
2023/03/17 07:52:10;;;;;;;10.63;3.78;;;;;;;8.50;72.19;100687.34;5082158;28;20032;-75
2023/03/17 07:54:36;;;;;;;9.60;3.83;;;;;;;8.52;71.50;100682.97;5079457;28;20064;-75
2023/03/17 07:57:02;;;;;;;9.20;3.25;;;;;;;8.57;71.23;100693.31;5076124;28;20032;-75
2023/03/17 07:59:27;;;;;;;8.82;4.07;;;;;;;8.66;71.46;100691.41;5074686;28;20070;-75
2023/03/17 08:01:53;;;;;;;8.65;3.35;;;;;;;8.67;72.29;100695.72;5074161;28;20028;-74
2023/03/17 08:04:18;;;;;;;11.45;3.42;;;;;;;8.72;70.24;100703.41;5075307;28;20009;-75
2023/03/17 08:06:45;;;;;;;6.47;2.97;;;;;;;8.85;69.68;100709.25;5074265;28;20025;-74
2023/03/17 08:09:11;;;;;;;5.65;3.38;;;;;;;8.80;68.63;100675.56;5088871;28;20423;-74
2023/03/17 08:11:37;;;;;;;8.13;3.55;;;;;;;8.95;68.23;100695.19;5074947;28;20028;-74
2023/03/17 08:14:03;;;;;;;6.43;3.13;;;;;;;8.97;68.59;100688.22;5074501;28;20047;-74
2023/03/17 08:16:29;;;;;;;8.57;3.97;;;;;;;9.05;70.12;100683.72;5073959;28;20103;-74
2023/03/17 08:18:57;;;;;;;10.15;3.80;;;;;;;9.19;68.24;100698.19;5089220;28;20134;-75
2023/03/17 08:21:23;;;;;;;7.82;3.28;;;;;;;9.29;68.34;100699.75;5086467;28;20024;-75
2023/03/17 08:23:52;;;;;;;6.13;3.53;;;;;;;9.45;68.49;100706.34;5082495;28;20028;-75
2023/03/17 08:26:17;;;;;;;8.85;3.65;;;;;;;9.60;66.65;100695.59;5075383;28;20020;-74
2023/03/17 08:28:43;;;;;;;7.22;3.30;;;;;;;9.71;66.14;100702.28;5068794;28;20035;-75
2023/03/17 08:31:14;;;;;;;9.05;3.90;;;;;;;9.82;65.58;100700.31;5078116;28;20024;-74
2023/03/17 08:33:41;;;;;;;6.88;3.13;;;;;;;9.94;65.84;100689.63;5073591;28;20052;-74
2023/03/17 08:36:08;;;;;;;7.30;3.60;;;;;;;10.04;66.82;100691.13;5075660;28;20060;-74
2023/03/17 08:38:35;;;;;;;7.57;3.17;;;;;;;10.14;65.36;100685.72;5074374;28;20013;-74
2023/03/17 08:41:02;;;;;;;10.07;3.53;;;;;;;10.17;64.73;100670.84;5074285;28;20028;-74
2023/03/17 08:43:28;;;;;;;7.00;3.20;;;;;;;10.17;65.13;100663.03;5073477;28;20036;-74
2023/03/17 08:46:01;;;;;;;7.78;3.60;;;;;;;10.24;66.32;100656.78;5085981;28;20024;-75
2023/03/17 08:48:26;;;;;;;8.73;3.35;;;;;;;10.33;65.09;100668.72;5073452;28;20028;-75
2023/03/17 08:50:52;;;;;;;10.10;4.05;;;;;;;10.48;65.17;100681.38;5081511;28;20017;-75
2023/03/17 08:53:18;;;;;;;6.97;3.38;;;;;;;10.59;62.80;100688.91;5074231;28;20025;-75
2023/03/17 08:55:56;;;;;;;8.85;3.45;;;;;;;10.15;64.90;100599.69;5094224;22;20102;-75
2023/03/17 08:58:24;;;;;;;8.63;3.80;;;;;;;10.48;63.04;100621.44;5092832;28;20077;-75
2023/03/17 09:00:51;;;;;;;7.40;3.45;;;;;;;10.57;63.82;100601.25;5093799;28;20012;-76
2023/03/17 09:03:19;;;;;;;7.68;3.80;;;;;;;11.24;62.69;100673.22;5090605;28;20085;-75
2023/03/17 09:05:47;;;;;;;5.88;3.30;;;;;;;11.35;61.95;100685.97;5089609;28;20016;-75
2023/03/17 09:08:13;;;;;;;4.90;3.65;;;;;;;11.34;60.47;100676.41;5093161;28;20101;-75
2023/03/17 09:10:38;;;;;;;5.88;3.85;;;;;;;11.45;61.21;100681.34;5091929;28;20124;-75
2023/03/17 09:13:04;;;;;;;4.78;3.08;;;;;;;11.47;60.83;100669.09;5091907;28;20360;-75
2023/03/17 09:15:30;;;;;;;5.35;3.10;;;;;;;11.48;60.31;100665.59;5092324;28;20036;-75
2023/03/17 09:17:56;;;;;;;6.80;3.38;;;;;;;11.59;60.24;100678.31;5093247;28;20098;-75
2023/03/17 09:20:22;;;;;;;5.57;3.60;;;;;;;11.60;60.87;100664.34;5094138;28;20363;-75
2023/03/17 09:22:47;;;;;;;9.52;3.67;;;;;;;11.71;61.08;100663.13;5093286;28;20514;-75
2023/03/17 09:25:14;;;;;;;6.43;3.60;;;;;;;11.93;60.45;100683.38;5092973;28;20032;-75
2023/03/17 09:27:39;;;;;;;6.70;3.40;;;;;;;12.11;59.60;100687.16;5092816;28;20020;-75
2023/03/17 09:30:05;;;;;;;6.63;3.83;;;;;;;12.12;59.20;100674.03;5093921;28;20035;-75
2023/03/17 09:32:31;;;;;;;7.22;3.40;;;;;;;12.31;59.35;100668.22;5091316;28;20472;-75
2023/03/17 09:34:56;;;;;;;7.65;3.72;;;;;;;12.43;59.25;100674.81;5090503;28;20032;-75
2023/03/17 09:37:21;;;;;;;6.65;3.53;;;;;;;12.46;59.62;100657.25;5092543;28;20023;-75
2023/03/17 09:39:47;;;;;;;6.97;3.97;;;;;;;12.49;59.32;100651.03;5092494;28;20031;-75
2023/03/17 09:42:39;;;;;;;6.80;3.58;;;;;;;12.55;59.27;100658.69;5093607;28;20024;-75
2023/03/17 09:45:25;;;;;;;8.35;3.63;;;;;;;12.56;58.92;100663.03;5092545;28;20111;-75
2023/03/17 09:48:05;;;;;;;6.10;3.38;;;;;;;12.56;59.66;100655.19;5091601;28;20043;-75
2023/03/17 09:50:40;;;;;;;5.78;3.35;;;;;;;12.63;60.33;100659.28;5093349;28;20028;-75
2023/03/17 09:53:15;;;;;;;11.68;3.58;;;;;;;12.63;59.11;100647.06;5092475;28;20020;-75
2023/03/17 09:55:43;;;;;;;8.40;3.28;;;;;;;12.71;58.50;100662.47;5090124;28;20083;-74
2023/03/17 09:58:10;;;;;;;5.97;3.65;;;;;;;12.63;58.48;100675.81;5091143;28;20035;-75
2023/03/17 10:00:35;;;;;;;6.80;3.40;;;;;;;12.51;59.86;100675.38;5091986;28;20016;-75
2023/03/17 10:03:01;;;;;;;6.28;3.40;;;;;;;12.35;60.63;100669.81;5092425;28;20108;-75
2023/03/17 10:05:28;;;;;;;5.88;3.33;;;;;;;12.35;60.55;100681.13;5093112;28;20095;-75
2023/03/17 10:08:20;;;;;;;7.93;3.15;;;;;;;12.34;60.44;100673.34;5091576;28;20032;-75
2023/03/17 10:11:12;;;;;;;11.45;3.45;;;;;;;12.20;62.32;100679.03;5085337;28;20035;-75
2023/03/17 10:14:11;;;;;;;5.45;3.20;;;;;;;12.11;62.50;100702.84;5091954;28;20069;-75
2023/03/17 10:16:53;;;;;;;7.13;3.10;;;;;;;12.18;62.38;100717.44;5086209;28;20568;-75
2023/03/17 10:19:39;;;;;;;6.60;3.10;;;;;;;12.24;62.73;100701.53;5090831;28;20016;-75
2023/03/17 10:22:29;;;;;;;6.22;2.90;;;;;;;12.37;62.31;100687.16;5092232;28;20016;-74
2023/03/17 10:25:00;;;;;;;5.90;3.35;;;;;;;12.79;61.81;100712.78;5079382;28;20020;-75
2023/03/17 10:30:00;;;;;;;7.47;3.70;;;;;;;12.88;64.55;100711.56;5117606;22;20048;-76
2023/03/17 10:32:28;;;;;;;8.40;3.20;;;;;;;13.09;59.21;100707.38;5072856;28;20048;-76
2023/03/17 10:34:55;;;;;;;6.65;3.45;;;;;;;13.34;60.23;100709.94;5068123;28;20028;-76
2023/03/17 10:37:23;;;;;;;5.35;3.28;;;;;;;13.52;58.92;100713.66;5072369;28;20044;-76
2023/03/17 10:39:54;;;;;;;9.75;3.20;;;;;;;13.76;58.34;100699.63;5071290;28;20028;-76
2023/03/17 10:42:24;;;;;;;4.70;3.00;;;;;;;14.02;58.50;100695.97;5070695;28;20025;-76
2023/03/17 10:44:57;;;;;;;8.43;3.03;;;;;;;14.23;56.58;100696.03;5070226;28;20024;-76
2023/03/17 10:47:32;;;;;;;5.93;3.40;;;;;;;14.46;55.60;100685.44;5070312;28;20039;-75
2023/03/17 10:50:20;;;;;;;5.07;3.00;;;;;;;14.79;56.91;100699.84;5071545;28;20012;-75
2023/03/17 10:52:47;;;;;;;7.20;3.10;;;;;;;15.21;53.81;100692.72;5072187;28;20032;-76
2023/03/17 10:55:19;;;;;;;4.47;2.92;;;;;;;15.62;53.50;100689.94;5070902;28;20021;-75
2023/03/17 10:58:04;;;;;;;4.53;2.88;;;;;;;15.92;53.47;100681.56;5070530;28;20032;-76
2023/03/17 11:00:34;;;;;;;3.90;2.60;;;;;;;15.96;50.75;100690.13;5058637;28;20464;-76
2023/03/17 11:03:11;;;;;;;6.78;2.97;;;;;;;15.88;51.50;100680.00;5069804;28;20029;-76
2023/03/17 11:05:37;;;;;;;9.00;3.17;;;;;;;15.92;49.87;100678.91;5071544;28;20519;-75
2023/03/17 11:08:16;;;;;;;7.30;2.80;;;;;;;15.89;50.95;100671.19;5072166;28;20056;-75
2023/03/17 11:10:43;;;;;;;8.18;3.15;;;;;;;16.03;50.81;100681.06;5071070;28;20025;-75
2023/03/17 11:13:09;;;;;;;5.90;3.17;;;;;;;16.05;49.90;100663.41;5068932;28;20035;-75
2023/03/17 11:15:44;;;;;;;6.15;3.08;;;;;;;16.13;50.06;100677.91;5067992;28;20024;-75
2023/03/17 11:18:34;;;;;;;6.47;3.10;;;;;;;16.38;50.64;100660.88;5070467;28;20106;-75
2023/03/17 11:21:05;;;;;;;6.43;2.97;;;;;;;16.60;50.01;100653.59;5072115;28;20024;-75
2023/03/17 11:23:33;;;;;;;4.95;2.92;;;;;;;16.71;48.42;100647.78;5071817;28;20033;-76
2023/03/17 11:26:32;;;;;;;6.60;2.90;;;;;;;16.93;51.00;100650.16;5067055;28;20025;-76
2023/03/17 11:29:25;;;;;;;6.68;3.25;;;;;;;16.95;50.91;100658.84;5075034;28;20139;-76
2023/03/17 11:31:50;;;;;;;6.15;3.30;;;;;;;17.01;48.37;100650.63;5068701;28;20043;-75
2023/03/17 11:34:37;;;;;;;6.25;3.22;;;;;;;17.09;50.00;100660.75;5073823;28;20037;-75